Main page
METAR-TAF:

METAR-TAF

Airports :

Bahrain International Airport

Bahrain, Bahrain

latitude: 26-16N, longitude: 050-39E, elevation: 2 m

Current weather observation

The report was made 46 minutes ago, at 18:01 UTC
Wind 11 kt from the North/Northwest
Temperature 32°C
Humidity 59%
Pressure 1004 hPa
Visibility 10 km or more
no clouds below 1500 m and no cumulonimbus

METAR: OBBI 261801Z 33011KT CAVOK 32/23 Q1004 NOSIG

Time: 21:47 (18:47 UTC)

Forecast

The report was made 1 hour and 47 minutes ago, at 17:00 UTC
Forecast valid from 26 at 18 UTC to 28 at 00 UTC
Wind 7 kt from the North/Northwest
Visibility 10 km or more
no clouds below 1500 m and no cumulonimbus
Becoming
from 27 at 03 UTC to 27 at 05 UTC
Wind 17 kt from the North/Northwest

TAF: OBBI 261700Z 2618/2800 33007KT CAVOK BECMG 2703/2705 34017KT

Weather observations and forecasts of more than 4000 airports (METAR and TAF reports).

The available stations are represented by yellow and red dots on the map.

Hover mouse over dot to see the name of the station.

Then click to see weather observations and forecasts.

To change the map : click on the green buttons with a black cross to zoom in, on the green button with a dash to zoom out, or on the green arrows for adjacent maps.


METAR-TAF: